Time;durP1;ratioP1;P1;durP2;ratioP2;P2;SDS_P1;SDS_P2;PMS_P1;PMS_P2;Temp;Humidity;BMP_temperature;BMP_pressure;BME280_temperature;BME280_humidity;BME280_pressure;Samples;Min_cycle;Max_cycle;Signal;HPM_P1;HPM_P2
2023/10/07 00:01:27;;;;;;;7.22;3.20;;;16.00;99.90;;;;;;4110947;28;20057;-66
2023/10/07 00:03:29;;;;;;;10.50;3.38;;;16.00;99.90;;;;;;4102740;28;20077;-66
2023/10/07 00:05:42;;;;;;;5.38;3.00;;;16.00;99.90;;;;;;4110020;28;20130;-66
2023/10/07 00:07:45;;;;;;;5.88;2.55;;;16.00;99.90;;;;;;4099582;28;20054;-66
2023/10/07 00:09:50;;;;;;;8.65;3.00;;;15.90;99.90;;;;;;4106766;28;20035;-66
2023/10/07 00:11:50;;;;;;;5.97;3.00;;;15.90;99.90;;;;;;4101374;28;20133;-66
2023/10/07 00:13:54;;;;;;;6.57;3.28;;;15.90;99.90;;;;;;4097803;28;20039;-65
2023/10/07 00:15:55;;;;;;;8.93;3.70;;;15.90;99.90;;;;;;4101556;28;20031;-66
2023/10/07 00:18:12;;;;;;;10.27;3.38;;;15.90;99.90;;;;;;4105710;28;20062;-66
2023/10/07 00:20:17;;;;;;;7.07;3.45;;;15.90;99.90;;;;;;4105969;28;20039;-67
2023/10/07 00:22:19;;;;;;;9.45;3.30;;;15.90;99.90;;;;;;4093434;28;20043;-66
2023/10/07 00:24:20;;;;;;;6.18;3.42;;;15.90;99.90;;;;;;4109100;28;20485;-66
2023/10/07 00:26:20;;;;;;;7.22;3.00;;;15.90;99.90;;;;;;4110536;28;20039;-66
2023/10/07 00:30:27;;;;;;;9.20;3.20;;;15.80;99.90;;;;;;4105061;28;20909;-66
2023/10/07 00:32:29;;;;;;;6.65;3.10;;;15.80;99.90;;;;;;4095188;28;20417;-66
2023/10/07 00:34:31;;;;;;;6.50;3.28;;;15.80;99.90;;;;;;4111442;28;20031;-67
2023/10/07 00:38:38;;;;;;;7.32;3.22;;;15.80;99.90;;;;;;4113962;28;20042;-67
2023/10/07 00:40:53;;;;;;;5.38;2.65;;;15.80;99.90;;;;;;4119657;28;20030;-68
2023/10/07 00:42:54;;;;;;;5.22;2.95;;;15.80;99.90;;;;;;4113327;28;20039;-66
2023/10/07 00:44:55;;;;;;;7.15;3.03;;;15.80;99.90;;;;;;4099950;28;20034;-66
2023/10/07 00:47:19;;;;;;;6.28;3.10;;;15.80;99.90;;;;;;4112704;28;20045;-67
2023/10/07 00:49:27;;;;;;;6.70;2.85;;;15.80;99.90;;;;;;4112373;28;20055;-66
2023/10/07 00:51:34;;;;;;;7.93;3.33;;;15.80;99.90;;;;;;4105688;28;20042;-67
2023/10/07 00:53:45;;;;;;;7.38;3.20;;;15.80;99.90;;;;;;4106835;28;20069;-66
2023/10/07 00:55:46;;;;;;;8.10;3.25;;;15.90;99.90;;;;;;4113120;28;20077;-68
2023/10/07 00:57:48;;;;;;;6.40;3.08;;;15.90;99.90;;;;;;4094205;28;24724;-66
2023/10/07 00:59:51;;;;;;;10.57;3.45;;;15.80;99.90;;;;;;4099943;28;20182;-66
2023/10/07 01:01:54;;;;;;;7.88;3.42;;;15.90;99.90;;;;;;4102049;28;20077;-66
2023/10/07 01:03:55;;;;;;;6.20;3.13;;;15.80;99.90;;;;;;4085230;28;20118;-66
2023/10/07 01:08:00;;;;;;;8.48;3.85;;;15.80;99.90;;;;;;4112059;28;20066;-73
2023/10/07 01:10:54;;;;;;;10.82;3.78;;;15.80;99.90;;;;;;4111900;28;20038;-73
2023/10/07 01:12:25;;;;;;;9.45;3.40;;;15.80;99.90;;;;;;4107932;28;20485;-73
2023/10/07 01:14:33;;;;;;;8.40;3.25;;;15.80;99.90;;;;;;4111457;28;20035;-74
2023/10/07 01:16:40;;;;;;;11.30;3.60;;;15.70;99.90;;;;;;4097140;28;20600;-73
2023/10/07 01:18:41;;;;;;;11.68;3.63;;;15.70;99.90;;;;;;4107959;28;20090;-72
2023/10/07 01:21:05;;;;;;;8.77;3.67;;;15.70;99.90;;;;;;4104202;28;20030;-71
2023/10/07 01:23:07;;;;;;;8.82;3.50;;;15.80;99.90;;;;;;4109154;28;20042;-73
2023/10/07 01:25:09;;;;;;;9.52;3.45;;;15.70;99.90;;;;;;4102439;28;20036;-73
2023/10/07 01:27:29;;;;;;;11.90;4.07;;;15.70;99.90;;;;;;4110823;28;20489;-69
2023/10/07 01:29:30;;;;;;;9.02;3.63;;;15.70;99.90;;;;;;4097803;28;20039;-73
2023/10/07 01:31:31;;;;;;;5.93;3.42;;;15.70;99.90;;;;;;4125695;28;20053;-73
2023/10/07 01:33:45;;;;;;;6.72;3.45;;;15.70;99.90;;;;;;4113695;28;20050;-74
2023/10/07 01:38:08;;;;;;;6.63;3.28;;;15.70;99.90;;;;;;4112687;28;20436;-72
2023/10/07 01:40:15;;;;;;;13.57;3.97;;;15.80;99.90;;;;;;4104144;28;20053;-73
2023/10/07 01:42:26;;;;;;;10.65;4.20;;;15.80;99.90;;;;;;4097047;28;20035;-74
2023/10/07 01:44:31;;;;;;;10.40;3.92;;;15.80;99.90;;;;;;4111274;28;20031;-73
2023/10/07 01:46:34;;;;;;;9.82;3.78;;;15.80;99.90;;;;;;4077203;28;20407;-73
2023/10/07 01:48:35;;;;;;;14.25;4.72;;;15.80;99.90;;;;;;4093140;28;20023;-72
2023/10/07 01:50:40;;;;;;;14.95;4.50;;;15.70;99.90;;;;;;4107306;28;20027;-73
2023/10/07 01:52:45;;;;;;;10.55;4.35;;;15.70;99.90;;;;;;4111450;28;20504;-73
2023/10/07 01:54:47;;;;;;;10.70;4.68;;;15.70;99.90;;;;;;4110393;28;20448;-72
2023/10/07 01:56:52;;;;;;;7.93;3.93;;;15.70;99.90;;;;;;4110866;28;20482;-73
2023/10/07 01:59:09;;;;;;;13.15;4.68;;;15.70;99.90;;;;;;4111648;28;20047;-74
2023/10/07 02:01:10;;;;;;;8.07;4.07;;;15.70;99.90;;;;;;4100278;28;20035;-72
2023/10/07 02:03:16;;;;;;;7.80;4.40;;;15.60;99.90;;;;;;4107197;28;20050;-72
2023/10/07 02:05:25;;;;;;;8.18;4.10;;;15.60;99.90;;;;;;4099882;28;20110;-73
2023/10/07 02:07:27;;;;;;;13.52;4.70;;;15.60;99.90;;;;;;4102174;28;20039;-74
2023/10/07 02:09:29;;;;;;;13.35;5.43;;;15.60;99.90;;;;;;4101563;28;20117;-73
2023/10/07 02:11:30;;;;;;;8.95;4.47;;;15.60;99.90;;;;;;4100981;28;20050;-74
2023/10/07 02:13:31;;;;;;;8.82;5.03;;;15.60;99.90;;;;;;4105436;28;20402;-73
2023/10/07 02:15:36;;;;;;;13.40;4.85;;;15.50;99.90;;;;;;4108206;28;20039;-73
2023/10/07 02:17:37;;;;;;;11.43;4.97;;;15.60;99.90;;;;;;4095731;28;20039;-73
2023/10/07 02:19:40;;;;;;;10.50;4.15;;;15.60;99.90;;;;;;4111558;28;20117;-72
2023/10/07 02:21:41;;;;;;;15.82;5.43;;;15.60;99.90;;;;;;4108489;28;20463;-73
2023/10/07 02:23:45;;;;;;;10.60;5.15;;;15.50;99.90;;;;;;4110114;28;20114;-73
2023/10/07 02:25:49;;;;;;;9.57;4.22;;;15.50;99.90;;;;;;4095885;28;20031;-73
2023/10/07 02:27:50;;;;;;;9.00;4.50;;;15.50;99.90;;;;;;4107547;28;20046;-73
2023/10/07 02:29:51;;;;;;;10.10;4.50;;;15.50;99.90;;;;;;4109696;28;20034;-73
2023/10/07 02:31:54;;;;;;;12.80;4.75;;;15.50;99.90;;;;;;4110616;28;20038;-73
2023/10/07 02:33:57;;;;;;;10.65;4.82;;;15.60;99.90;;;;;;4111302;28;20033;-74
2023/10/07 02:35:58;;;;;;;8.55;3.80;;;15.60;99.90;;;;;;4103381;28;20043;-69
2023/10/07 02:38:03;;;;;;;12.73;4.85;;;15.50;99.90;;;;;;4107483;28;20043;-73
2023/10/07 02:40:19;;;;;;;14.45;5.25;;;15.50;99.90;;;;;;4107743;28;20280;-72
2023/10/07 02:42:24;;;;;;;8.07;4.03;;;15.50;99.90;;;;;;4108232;28;20027;-73
2023/10/07 02:44:28;;;;;;;14.23;4.95;;;15.60;99.90;;;;;;4111221;28;20082;-74
2023/10/07 02:48:34;;;;;;;9.82;4.57;;;15.50;99.90;;;;;;4110325;28;20027;-73
2023/10/07 02:50:39;;;;;;;11.00;4.80;;;15.50;99.90;;;;;;4108570;28;20404;-73
2023/10/07 02:52:40;;;;;;;10.75;5.13;;;15.50;99.90;;;;;;4109537;28;20043;-73
2023/10/07 02:54:41;;;;;;;10.98;5.03;;;15.50;99.90;;;;;;4109165;28;20091;-73
2023/10/07 02:56:54;;;;;;;12.13;5.70;;;15.50;99.90;;;;;;4116194;28;20464;-71
2023/10/07 02:59:03;;;;;;;13.75;5.28;;;15.50;99.90;;;;;;4098089;28;20110;-74
2023/10/07 03:01:13;;;;;;;10.43;5.18;;;15.50;99.90;;;;;;4101838;28;20031;-72
2023/10/07 03:05:15;;;;;;;11.25;5.63;;;15.50;99.90;;;;;;4102919;28;20050;-73
2023/10/07 03:07:16;;;;;;;10.95;5.32;;;15.50;99.90;;;;;;4106528;28;20055;-73
2023/10/07 03:09:18;;;;;;;16.70;5.15;;;15.60;99.90;;;;;;4104439;28;20507;-73
2023/10/07 03:11:22;;;;;;;9.68;4.88;;;15.60;99.90;;;;;;4102657;28;20058;-74
2023/10/07 03:13:23;;;;;;;10.13;5.63;;;15.70;99.90;;;;;;4106384;28;20062;-74
2023/10/07 03:17:37;;;;;;;11.13;4.97;;;15.70;99.90;;;;;;4111774;28;20039;-69
2023/10/07 03:19:56;;;;;;;11.93;4.78;;;15.70;99.90;;;;;;4114050;28;20043;-69
2023/10/07 03:22:09;;;;;;;9.90;5.32;;;15.80;99.90;;;;;;4109762;28;20030;-69
2023/10/07 03:24:11;;;;;;;17.17;6.25;;;15.80;99.90;;;;;;4110867;28;20035;-69
2023/10/07 03:26:21;;;;;;;15.32;5.50;;;15.80;99.90;;;;;;4108712;28;20031;-69
2023/10/07 03:28:30;;;;;;;9.85;5.25;;;15.80;99.90;;;;;;4098558;28;20035;-68
2023/10/07 03:30:30;;;;;;;11.18;5.97;;;15.80;99.90;;;;;;4126455;28;20049;-69
2023/10/07 03:32:48;;;;;;;12.57;5.35;;;15.80;99.90;;;;;;4108237;28;20583;-69
2023/10/07 03:34:49;;;;;;;13.18;5.85;;;15.80;99.90;;;;;;4109050;28;20049;-69
2023/10/07 03:41:21;;;;;;;9.60;5.10;;;15.80;99.90;;;;;;4115262;28;20023;-73
2023/10/07 03:43:25;;;;;;;13.07;5.93;;;15.90;99.90;;;;;;4096044;28;20035;-73
2023/10/07 03:45:29;;;;;;;13.00;6.35;;;15.90;99.90;;;;;;4096178;28;20678;-74
2023/10/07 03:47:32;;;;;;;12.27;5.68;;;15.90;99.90;;;;;;4093781;28;20036;-73
2023/10/07 03:49:39;;;;;;;9.05;5.05;;;15.90;99.90;;;;;;4113414;28;20037;-73
2023/10/07 03:51:40;;;;;;;13.32;5.13;;;15.90;99.90;;;;;;4110857;28;20035;-72
2023/10/07 03:53:47;;;;;;;10.50;5.45;;;15.90;99.90;;;;;;4114001;28;20520;-72
2023/10/07 03:55:47;;;;;;;10.77;5.53;;;15.90;99.90;;;;;;4109930;28;20524;-74
2023/10/07 03:57:49;;;;;;;9.80;5.30;;;15.90;99.90;;;;;;4113735;28;20089;-73
2023/10/07 03:59:52;;;;;;;12.77;6.15;;;16.00;99.90;;;;;;4113500;28;20126;-73
2023/10/07 04:01:53;;;;;;;11.02;5.38;;;16.00;99.90;;;;;;4108636;28;20034;-73
2023/10/07 04:03:59;;;;;;;11.35;5.53;;;16.00;99.90;;;;;;4112096;28;20078;-74
2023/10/07 04:05:59;;;;;;;11.25;5.40;;;16.00;99.90;;;;;;4111132;28;20039;-73
2023/10/07 04:08:02;;;;;;;11.13;5.43;;;16.00;99.90;;;;;;4113222;28;20483;-73
2023/10/07 04:12:19;;;;;;;10.43;5.30;;;16.00;99.90;;;;;;4109731;28;20440;-73
2023/10/07 04:14:22;;;;;;;12.43;5.55;;;16.10;99.90;;;;;;4112058;28;20035;-73
2023/10/07 04:16:24;;;;;;;13.48;5.40;;;16.10;99.90;;;;;;4111168;28;20046;-74
2023/10/07 04:18:34;;;;;;;9.73;5.75;;;16.10;99.90;;;;;;4113079;28;20125;-74
2023/10/07 04:21:20;;;;;;;9.90;4.45;;;16.10;99.90;;;;;;4111094;28;20043;-73
2023/10/07 04:23:00;;;;;;;12.88;5.78;;;16.10;99.90;;;;;;4104843;28;20031;-73
2023/10/07 04:25:07;;;;;;;13.45;6.50;;;16.10;99.90;;;;;;4103399;28;20050;-73
2023/10/07 04:27:08;;;;;;;14.65;6.50;;;16.10;99.90;;;;;;4110924;28;20030;-69
2023/10/07 04:29:14;;;;;;;12.45;6.55;;;16.10;99.90;;;;;;4108980;28;20508;-69
2023/10/07 04:31:16;;;;;;;11.95;5.97;;;16.10;99.90;;;;;;4112556;28;20029;-69
2023/10/07 04:33:25;;;;;;;9.93;5.10;;;16.00;99.90;;;;;;4097248;28;20497;-69
2023/10/07 04:35:30;;;;;;;12.20;6.47;;;16.10;99.90;;;;;;4107303;28;20066;-68
2023/10/07 04:37:47;;;;;;;10.13;5.78;;;16.10;99.90;;;;;;4094810;29;20047;-69
2023/10/07 04:41:57;;;;;;;13.18;6.10;;;16.10;99.90;;;;;;4110343;28;20038;-69
2023/10/07 04:44:20;;;;;;;11.30;5.93;;;16.20;99.90;;;;;;4112535;28;20182;-68
2023/10/07 04:46:24;;;;;;;12.27;6.70;;;16.10;99.90;;;;;;4093122;28;20031;-67
2023/10/07 04:48:31;;;;;;;12.25;6.15;;;16.10;99.90;;;;;;4109314;28;20035;-66
2023/10/07 04:50:36;;;;;;;11.55;5.82;;;16.10;99.90;;;;;;4100436;28;20038;-66
2023/10/07 04:52:50;;;;;;;10.85;6.40;;;16.10;99.90;;;;;;4111110;28;20047;-67
2023/10/07 04:54:52;;;;;;;8.45;5.28;;;16.10;99.90;;;;;;4111415;28;20523;-66
2023/10/07 04:57:00;;;;;;;12.68;5.90;;;16.10;99.90;;;;;;4110533;28;20073;-67
2023/10/07 04:59:05;;;;;;;11.40;6.03;;;16.20;99.90;;;;;;4107496;28;20523;-66
2023/10/07 05:01:22;;;;;;;9.40;4.80;;;16.20;99.90;;;;;;4109313;28;20499;-66
2023/10/07 05:03:26;;;;;;;13.20;6.15;;;16.20;99.90;;;;;;4108026;28;20039;-66
2023/10/07 05:05:30;;;;;;;10.98;5.97;;;16.20;99.90;;;;;;4106326;28;20038;-66
2023/10/07 05:07:31;;;;;;;10.55;5.40;;;16.20;99.90;;;;;;4117682;28;20039;-67
2023/10/07 05:09:32;;;;;;;11.95;5.70;;;16.20;99.90;;;;;;4112644;28;20047;-66
2023/10/07 05:11:37;;;;;;;12.38;5.93;;;16.20;99.90;;;;;;4099214;28;20112;-67
2023/10/07 05:13:44;;;;;;;11.88;5.72;;;16.30;99.90;;;;;;4117929;28;20511;-66
2023/10/07 05:15:45;;;;;;;12.18;6.28;;;16.20;99.90;;;;;;4090553;28;20067;-68
2023/10/07 05:17:45;;;;;;;10.20;5.32;;;16.20;99.90;;;;;;4102579;28;20479;-66
2023/10/07 05:19:46;;;;;;;12.68;4.95;;;16.20;99.90;;;;;;4107550;28;20496;-68
2023/10/07 05:21:58;;;;;;;9.13;5.07;;;16.20;99.90;;;;;;4094613;28;20687;-66
2023/10/07 05:24:02;;;;;;;8.93;5.05;;;16.20;99.90;;;;;;4104846;28;20497;-67
2023/10/07 05:26:03;;;;;;;11.50;5.20;;;16.20;99.90;;;;;;4110038;28;20038;-66
2023/10/07 05:28:11;;;;;;;9.00;5.03;;;16.20;99.90;;;;;;4110338;28;20511;-66
2023/10/07 05:30:13;;;;;;;12.05;5.55;;;16.30;99.90;;;;;;4103753;28;20397;-67
2023/10/07 05:32:13;;;;;;;10.05;5.22;;;16.30;99.90;;;;;;4113646;28;20093;-67
2023/10/07 05:34:15;;;;;;;7.65;4.55;;;16.30;99.90;;;;;;4104525;28;20043;-67
2023/10/07 05:36:17;;;;;;;9.93;5.55;;;16.30;99.90;;;;;;4106540;28;20248;-73
2023/10/07 05:38:18;;;;;;;10.38;5.47;;;16.30;99.90;;;;;;4110607;28;20404;-73
2023/10/07 05:40:21;;;;;;;13.63;6.65;;;16.30;99.90;;;;;;4108354;28;21553;-73
2023/10/07 05:42:22;;;;;;;10.38;4.88;;;16.20;99.90;;;;;;4083580;28;20231;-73
2023/10/07 05:44:23;;;;;;;15.65;5.38;;;16.20;99.90;;;;;;4100571;28;20031;-73
2023/10/07 05:46:24;;;;;;;10.98;5.28;;;16.30;99.90;;;;;;4103701;28;22060;-72
2023/10/07 05:48:25;;;;;;;9.23;5.03;;;16.30;99.90;;;;;;4100673;28;20110;-72
2023/10/07 05:50:27;;;;;;;10.43;5.18;;;16.20;99.90;;;;;;4105072;28;21072;-73
2023/10/07 05:52:28;;;;;;;9.93;4.45;;;16.30;99.90;;;;;;4102570;28;20082;-73
2023/10/07 05:54:31;;;;;;;15.43;6.40;;;16.20;99.90;;;;;;4101092;28;20413;-73
2023/10/07 05:56:31;;;;;;;12.35;5.60;;;16.30;99.90;;;;;;4096733;28;20074;-68
2023/10/07 05:58:36;;;;;;;8.10;4.68;;;16.30;99.90;;;;;;4098336;28;20386;-68
2023/10/07 06:00:38;;;;;;;9.77;4.85;;;16.30;99.90;;;;;;4107754;28;20030;-68
2023/10/07 06:02:40;;;;;;;9.93;4.33;;;16.20;99.90;;;;;;4110013;28;20072;-68
2023/10/07 06:04:41;;;;;;;11.55;5.13;;;16.20;99.90;;;;;;4123426;28;20793;-67
2023/10/07 06:06:42;;;;;;;10.43;4.32;;;16.30;99.90;;;;;;4106074;28;20035;-67
2023/10/07 06:08:42;;;;;;;12.35;5.53;;;16.30;99.90;;;;;;4111073;28;20050;-67
2023/10/07 06:10:51;;;;;;;10.45;4.50;;;16.30;99.90;;;;;;4109688;28;20070;-67
2023/10/07 06:12:55;;;;;;;12.00;4.60;;;16.30;99.90;;;;;;4111436;28;20596;-67
2023/10/07 06:14:55;;;;;;;8.45;4.35;;;16.20;99.90;;;;;;4105546;28;20035;-67
2023/10/07 06:16:56;;;;;;;11.45;4.47;;;16.30;99.90;;;;;;4107571;28;20031;-67
2023/10/07 06:18:58;;;;;;;14.80;5.57;;;16.30;99.90;;;;;;4103589;28;20043;-67
2023/10/07 06:21:18;;;;;;;7.22;4.53;;;16.30;99.90;;;;;;4110599;28;20041;-67
2023/10/07 06:23:19;;;;;;;11.57;4.53;;;16.30;99.90;;;;;;4106955;28;20118;-67
2023/10/07 06:25:28;;;;;;;6.55;4.05;;;16.30;99.90;;;;;;4110063;28;20049;-68
2023/10/07 06:27:28;;;;;;;10.30;4.70;;;16.30;99.90;;;;;;4111029;28;20045;-67
2023/10/07 06:29:32;;;;;;;12.70;4.82;;;16.20;99.90;;;;;;4111754;28;20035;-67
2023/10/07 06:31:32;;;;;;;12.40;5.45;;;16.20;99.90;;;;;;4105790;28;20496;-68
2023/10/07 06:33:33;;;;;;;9.23;4.13;;;16.30;99.90;;;;;;4109203;28;20037;-67
2023/10/07 06:35:37;;;;;;;11.52;5.05;;;16.30;99.90;;;;;;4113617;28;20038;-67
2023/10/07 06:37:38;;;;;;;9.85;4.70;;;16.30;99.90;;;;;;4112546;28;20039;-67
2023/10/07 06:39:38;;;;;;;10.52;4.40;;;16.30;99.90;;;;;;4110844;28;20461;-67
2023/10/07 06:41:42;;;;;;;9.45;4.68;;;16.30;99.90;;;;;;4107587;28;20042;-67
2023/10/07 06:43:43;;;;;;;11.43;4.55;;;16.30;99.90;;;;;;4110557;28;20133;-67
2023/10/07 06:45:44;;;;;;;8.30;4.25;;;16.30;99.90;;;;;;4103944;28;20417;-69
2023/10/07 06:47:48;;;;;;;8.32;4.13;;;16.30;99.90;;;;;;4109780;28;20431;-69
2023/10/07 06:49:52;;;;;;;10.35;4.45;;;16.30;99.90;;;;;;4110868;28;20035;-72
2023/10/07 06:51:54;;;;;;;9.30;4.15;;;16.30;99.90;;;;;;4111987;28;20089;-73
2023/10/07 06:53:55;;;;;;;10.13;4.65;;;16.30;99.90;;;;;;4111008;28;20035;-73
2023/10/07 06:55:58;;;;;;;9.73;4.05;;;16.40;99.90;;;;;;4108774;28;20049;-72
2023/10/07 06:57:59;;;;;;;7.38;4.15;;;16.30;99.90;;;;;;4110035;28;20102;-72
2023/10/07 06:59:59;;;;;;;11.02;4.55;;;16.30;99.90;;;;;;4117515;28;20046;-69
2023/10/07 07:02:06;;;;;;;13.35;5.03;;;16.40;99.90;;;;;;4119871;28;20041;-72
2023/10/07 07:04:18;;;;;;;11.65;5.03;;;16.30;99.90;;;;;;4122217;28;20035;-73
2023/10/07 07:06:33;;;;;;;9.63;4.82;;;16.30;99.90;;;;;;4107093;28;20107;-65
2023/10/07 07:08:35;;;;;;;8.30;4.00;;;16.40;99.90;;;;;;4111872;28;20043;-65
2023/10/07 07:10:35;;;;;;;9.35;4.43;;;16.40;99.90;;;;;;4109149;28;20481;-65
2023/10/07 07:12:37;;;;;;;10.57;4.22;;;16.40;99.90;;;;;;4104036;28;20119;-65
2023/10/07 07:14:52;;;;;;;7.55;4.00;;;16.40;99.90;;;;;;4110526;28;20038;-65
2023/10/07 07:16:53;;;;;;;10.10;4.00;;;16.30;99.90;;;;;;4098831;28;20038;-65
2023/10/07 07:18:59;;;;;;;10.30;4.25;;;16.40;99.90;;;;;;4114276;28;20043;-65
2023/10/07 07:23:17;;;;;;;11.38;4.72;;;16.50;99.90;;;;;;4118925;28;20056;-65
2023/10/07 07:27:24;;;;;;;12.38;4.03;;;16.50;99.90;;;;;;4112878;28;20127;-65
2023/10/07 07:29:25;;;;;;;6.75;3.78;;;16.50;99.90;;;;;;4086234;28;20031;-66
2023/10/07 07:31:33;;;;;;;10.77;3.90;;;16.50;99.90;;;;;;4109220;28;21846;-66
2023/10/07 07:33:35;;;;;;;7.07;3.35;;;16.50;99.90;;;;;;4107356;28;20138;-66
2023/10/07 07:35:39;;;;;;;11.00;4.05;;;16.50;99.90;;;;;;4107880;28;20066;-65
2023/10/07 07:37:40;;;;;;;9.05;4.07;;;16.60;99.90;;;;;;4091411;28;20038;-66
2023/10/07 07:39:40;;;;;;;9.23;3.83;;;16.60;99.90;;;;;;4079432;28;20610;-66
2023/10/07 07:41:56;;;;;;;14.30;4.28;;;16.60;99.90;;;;;;4108237;28;20035;-65
2023/10/07 07:43:59;;;;;;;9.45;4.13;;;16.60;99.90;;;;;;4091269;28;20123;-64
2023/10/07 07:48:18;;;;;;;8.68;3.72;;;16.60;99.90;;;;;;4116583;28;20474;-65
2023/10/07 07:50:19;;;;;;;8.50;3.60;;;16.70;99.90;;;;;;4111198;28;20043;-65
2023/10/07 07:52:20;;;;;;;9.68;4.70;;;16.70;99.90;;;;;;4107839;28;20043;-65
2023/10/07 07:54:24;;;;;;;9.05;3.67;;;16.70;99.90;;;;;;4105100;28;20464;-65
2023/10/07 07:56:25;;;;;;;10.75;3.95;;;16.70;99.90;;;;;;4112106;28;20405;-67
2023/10/07 07:58:25;;;;;;;8.45;3.83;;;16.70;99.90;;;;;;4111143;28;20080;-67
2023/10/07 08:00:26;;;;;;;10.80;3.92;;;16.70;99.90;;;;;;4117696;28;20308;-67
2023/10/07 08:02:27;;;;;;;9.13;4.25;;;16.80;99.90;;;;;;4123847;28;20042;-67
2023/10/07 08:04:46;;;;;;;7.32;3.45;;;16.70;99.90;;;;;;4097744;28;20039;-67
2023/10/07 08:06:47;;;;;;;8.15;4.00;;;16.80;99.90;;;;;;4112025;28;20027;-67
2023/10/07 08:08:49;;;;;;;9.05;3.60;;;16.80;99.90;;;;;;4115116;28;20039;-68
2023/10/07 08:10:54;;;;;;;14.50;4.88;;;16.80;99.90;;;;;;4109555;28;20481;-67
2023/10/07 08:12:58;;;;;;;8.52;3.92;;;16.80;99.90;;;;;;4111887;28;20053;-67
2023/10/07 08:15:04;;;;;;;9.05;4.10;;;16.80;99.90;;;;;;4112122;28;20051;-67
2023/10/07 08:17:08;;;;;;;8.65;3.88;;;16.90;99.90;;;;;;4110059;28;20039;-72
2023/10/07 08:19:09;;;;;;;8.32;3.53;;;16.80;99.90;;;;;;4110901;28;20137;-72
2023/10/07 08:21:13;;;;;;;7.00;3.80;;;16.90;99.90;;;;;;4110281;28;20063;-72
2023/10/07 08:23:28;;;;;;;7.50;3.65;;;16.90;99.90;;;;;;4114481;28;20106;-72
2023/10/07 08:25:37;;;;;;;7.70;3.58;;;16.80;99.90;;;;;;4096632;28;20083;-73
2023/10/07 08:27:44;;;;;;;8.77;4.00;;;16.80;99.90;;;;;;4118168;28;20031;-72
2023/10/07 08:29:45;;;;;;;8.13;4.15;;;16.90;99.90;;;;;;4105068;28;20042;-72
2023/10/07 08:31:49;;;;;;;5.72;3.25;;;16.90;99.90;;;;;;4106133;28;20480;-72
2023/10/07 08:36:09;;;;;;;11.80;4.18;;;16.90;99.90;;;;;;4095800;28;20054;-72
2023/10/07 08:38:58;;;;;;;7.32;3.75;;;16.90;99.90;;;;;;4102493;28;20511;-72
2023/10/07 08:40:43;;;;;;;6.38;3.17;;;17.00;99.90;;;;;;4073443;28;20842;-72
2023/10/07 08:42:45;;;;;;;9.15;3.83;;;17.00;99.90;;;;;;4111131;28;20075;-69
2023/10/07 08:44:51;;;;;;;10.43;4.18;;;17.00;99.90;;;;;;4102896;28;20046;-72
2023/10/07 08:47:03;;;;;;;10.63;4.28;;;17.00;99.90;;;;;;4114113;28;20029;-72
2023/10/07 08:49:13;;;;;;;7.05;3.80;;;17.00;99.90;;;;;;4118791;28;20066;-72
2023/10/07 08:51:14;;;;;;;10.38;4.75;;;17.10;99.90;;;;;;4113723;28;20062;-71
2023/10/07 08:53:15;;;;;;;8.70;4.30;;;17.20;99.90;;;;;;4092438;28;20094;-73
2023/10/07 08:55:16;;;;;;;7.00;3.42;;;17.20;99.90;;;;;;4099762;28;20039;-72
2023/10/07 08:57:22;;;;;;;6.97;3.33;;;17.40;99.90;;;;;;4105266;28;20489;-73
2023/10/07 08:59:24;;;;;;;11.90;4.70;;;17.50;99.90;;;;;;4101053;28;20043;-71
2023/10/07 09:01:25;;;;;;;;;;;17.70;99.90;;;;;;4102318;28;20114;-71
2023/10/07 09:03:28;;;;;;;10.15;4.00;;;17.80;99.90;;;;;;4112720;28;20391;-73
2023/10/07 09:05:29;;;;;;;;;;;17.90;99.90;;;;;;4096883;28;20042;-66
2023/10/07 09:07:33;;;;;;;8.48;4.03;;;18.10;99.90;;;;;;4101962;28;19918;-66
2023/10/07 09:09:38;;;;;;;6.25;3.60;;;18.20;99.90;;;;;;4097824;28;20074;-65
2023/10/07 09:11:40;;;;;;;8.43;3.95;;;18.40;99.90;;;;;;4111061;28;20069;-67
2023/10/07 09:13:41;;;;;;;10.95;3.78;;;18.40;99.90;;;;;;4116975;28;20101;-66
2023/10/07 09:15:42;;;;;;;11.98;3.83;;;18.60;99.90;;;;;;4088495;28;20043;-67
2023/10/07 09:17:45;;;;;;;7.72;4.00;;;18.60;99.90;;;;;;4103275;28;20089;-68
2023/10/07 09:19:48;;;;;;;11.05;4.80;;;18.80;99.90;;;;;;4103596;28;20038;-69
2023/10/07 09:21:57;;;;;;;9.07;4.07;;;18.80;99.90;;;;;;4101226;28;20045;-68
2023/10/07 09:24:01;;;;;;;7.60;3.70;;;19.00;99.90;;;;;;4101116;28;20106;-66
2023/10/07 09:28:31;;;;;;;6.65;3.28;;;19.20;99.90;;;;;;4102448;28;20094;-66
2023/10/07 09:30:35;;;;;;;5.53;3.22;;;19.30;99.90;;;;;;4111887;28;20382;-66
2023/10/07 09:32:37;;;;;;;7.25;3.80;;;19.30;99.90;;;;;;4123070;28;20070;-66
2023/10/07 09:34:42;;;;;;;6.85;3.38;;;19.40;99.90;;;;;;4102338;28;20455;-67
2023/10/07 09:36:46;;;;;;;7.07;3.00;;;19.50;99.90;;;;;;4106248;28;20420;-67
2023/10/07 09:38:48;;;;;;;5.97;3.33;;;19.60;99.90;;;;;;4097625;28;20035;-67
2023/10/07 09:42:57;;;;;;;8.43;3.90;;;19.70;99.90;;;;;;4106951;28;20044;-66
2023/10/07 09:45:27;;;;;;;9.88;3.28;;;19.80;99.90;;;;;;4112914;28;20034;-66
2023/10/07 09:47:21;;;;;;;7.60;3.65;;;19.80;99.90;;;;;;4087258;28;20039;-66
2023/10/07 09:49:23;;;;;;;6.35;3.25;;;20.00;99.90;;;;;;4107172;28;20094;-66
2023/10/07 09:51:34;;;;;;;7.00;2.93;;;20.00;99.90;;;;;;4091009;28;20050;-67
2023/10/07 09:53:40;;;;;;;8.15;3.40;;;20.10;99.90;;;;;;4105738;28;20043;-66
2023/10/07 09:56:21;;;;;;;6.82;3.47;;;20.20;99.90;;;;;;4111702;28;20045;-66
2023/10/07 09:58:42;;;;;;;6.70;3.50;;;20.30;99.90;;;;;;4090353;28;20045;-66
2023/10/07 10:01:37;;;;;;;9.73;3.38;;;20.40;99.90;;;;;;4115922;28;20035;-68
2023/10/07 10:04:03;;;;;;;6.70;3.20;;;20.50;99.90;;;;;;4040195;28;20056;-67
2023/10/07 10:06:25;;;;;;;8.07;3.75;;;20.40;99.90;;;;;;4115084;28;20039;-66
2023/10/07 10:09:08;;;;;;;11.75;3.30;;;20.50;99.90;;;;;;4067468;29;20115;-66
2023/10/07 10:11:31;;;;;;;8.70;3.65;;;20.50;99.90;;;;;;4101786;28;20039;-67
2023/10/07 10:17:48;;;;;;;6.13;3.10;;;20.70;99.90;;;;;;4108128;28;20383;-74
2023/10/07 10:20:00;;;;;;;6.28;2.92;;;20.80;99.90;;;;;;4094751;28;20039;-72
2023/10/07 10:22:12;;;;;;;7.68;3.15;;;20.80;99.90;;;;;;4096386;28;20042;-74
2023/10/07 10:24:18;;;;;;;4.82;2.80;;;20.90;99.90;;;;;;4099773;28;20039;-74
2023/10/07 10:26:27;;;;;;;5.88;2.72;;;20.90;99.90;;;;;;4092678;28;20051;-74
2023/10/07 10:28:27;;;;;;;6.15;3.50;;;21.00;99.90;;;;;;4093789;28;20043;-74
2023/10/07 10:30:29;;;;;;;6.88;2.70;;;21.00;99.90;;;;;;4100320;28;20042;-75
2023/10/07 10:32:34;;;;;;;6.13;3.05;;;21.00;99.90;;;;;;4100840;28;20039;-74
2023/10/07 10:34:35;;;;;;;4.97;2.60;;;21.10;99.90;;;;;;4098923;28;20102;-73
2023/10/07 10:36:38;;;;;;;5.95;2.50;;;21.10;99.90;;;;;;4100218;28;20431;-66
2023/10/07 10:38:40;;;;;;;9.40;3.25;;;21.20;99.90;;;;;;4112724;28;20039;-67
2023/10/07 10:40:45;;;;;;;7.65;3.53;;;21.10;99.90;;;;;;4091342;28;20584;-67
2023/10/07 10:42:49;;;;;;;10.35;2.78;;;21.10;99.90;;;;;;4101972;28;20358;-67
2023/10/07 10:44:52;;;;;;;8.10;3.05;;;21.20;99.90;;;;;;4100503;28;20027;-70
2023/10/07 10:46:53;;;;;;;5.32;2.42;;;21.30;99.90;;;;;;4120013;28;20030;-74
2023/10/07 10:48:54;;;;;;;6.38;2.95;;;21.30;99.90;;;;;;4103404;28;20417;-73
2023/10/07 10:50:55;;;;;;;6.30;2.80;;;21.40;99.90;;;;;;4098824;28;20109;-73
2023/10/07 10:52:58;;;;;;;6.22;2.60;;;21.40;99.90;;;;;;4102834;28;20119;-74
2023/10/07 10:55:03;;;;;;;6.85;2.95;;;21.50;99.90;;;;;;4112119;28;20034;-73
2023/10/07 10:57:07;;;;;;;7.15;2.72;;;21.50;99.90;;;;;;4086730;28;20150;-74
2023/10/07 10:59:08;;;;;;;7.00;2.65;;;21.50;99.90;;;;;;4104203;28;20038;-75
2023/10/07 11:01:11;;;;;;;6.10;2.88;;;21.60;99.90;;;;;;4099513;28;20046;-75
2023/10/07 11:03:15;;;;;;;5.53;2.42;;;21.50;99.90;;;;;;4096120;28;20043;-74
2023/10/07 11:05:17;;;;;;;9.20;2.60;;;21.60;99.90;;;;;;4100078;28;20431;-72
2023/10/07 11:07:18;;;;;;;6.25;2.58;;;21.60;99.90;;;;;;4082936;29;20035;-71
2023/10/07 11:09:25;;;;;;;4.78;2.30;;;21.60;99.90;;;;;;4096526;28;20043;-70
2023/10/07 11:11:26;;;;;;;5.38;2.70;;;21.50;99.90;;;;;;4105119;28;20038;-73
2023/10/07 11:13:31;;;;;;;5.45;2.67;;;21.50;99.90;;;;;;4101081;28;20031;-74
2023/10/07 11:15:32;;;;;;;9.20;2.92;;;21.50;99.90;;;;;;4120471;28;20303;-73
2023/10/07 11:17:37;;;;;;;5.60;2.88;;;21.60;99.90;;;;;;4117424;28;20030;-73
2023/10/07 11:19:50;;;;;;;7.35;3.55;;;21.50;99.90;;;;;;4093562;28;20122;-74
2023/10/07 11:21:51;;;;;;;6.75;2.97;;;21.50;99.90;;;;;;4100355;28;20084;-72
2023/10/07 11:23:55;;;;;;;6.43;3.08;;;21.50;99.90;;;;;;4102565;28;20351;-72
2023/10/07 11:25:56;;;;;;;5.15;3.15;;;21.60;99.90;;;;;;4105571;28;20035;-66
2023/10/07 11:27:58;;;;;;;6.55;2.92;;;21.60;99.90;;;;;;4095285;28;20047;-68
2023/10/07 11:30:06;;;;;;;8.05;3.10;;;21.70;99.90;;;;;;4097432;28;20032;-65